createdAt,value
2017-01-26T00:00:25.712Z,1027.61
2017-01-26T00:01:36.434Z,1027.58
2017-01-26T00:02:47.142Z,1027.59
2017-01-26T00:03:57.854Z,1027.61
2017-01-26T00:05:08.600Z,1027.6
2017-01-26T00:06:19.302Z,1027.59
2017-01-26T00:07:30.296Z,1027.53
2017-01-26T00:08:41.012Z,1027.5
2017-01-26T00:09:51.743Z,1027.51
2017-01-26T00:11:02.476Z,1027.51
2017-01-26T00:12:13.197Z,1027.51
2017-01-26T00:13:23.922Z,1027.5
2017-01-26T00:14:34.671Z,1027.5
2017-01-26T00:15:45.397Z,1027.47
2017-01-26T00:16:56.113Z,1027.4
2017-01-26T00:18:06.832Z,1027.39
2017-01-26T00:19:17.533Z,1027.36
2017-01-26T00:20:28.268Z,1027.33
2017-01-26T00:21:38.972Z,1027.32
2017-01-26T00:22:49.669Z,1027.31
2017-01-26T00:24:00.410Z,1027.3
2017-01-26T00:25:11.130Z,1027.31
2017-01-26T00:26:21.860Z,1027.34
2017-01-26T00:27:32.599Z,1027.36
2017-01-26T00:28:43.323Z,1027.41
2017-01-26T00:29:54.040Z,1027.41
2017-01-26T00:31:04.768Z,1027.42
2017-01-26T00:32:15.486Z,1027.36
2017-01-26T00:33:26.190Z,1027.4
2017-01-26T00:34:36.934Z,1027.38
2017-01-26T00:35:47.654Z,1027.36
2017-01-26T00:36:58.637Z,1027.34
2017-01-26T00:38:09.342Z,1027.32
2017-01-26T00:39:20.065Z,1027.4
2017-01-26T00:40:30.837Z,1027.4
2017-01-26T00:41:41.603Z,1027.38
2017-01-26T00:42:52.347Z,1027.4
2017-01-26T00:44:03.049Z,1027.38
2017-01-26T00:45:13.792Z,1027.37
2017-01-26T00:46:24.517Z,1027.32
2017-01-26T00:47:35.251Z,1027.38
2017-01-26T00:48:46.235Z,1027.39
2017-01-26T00:49:56.972Z,1027.4
2017-01-26T00:51:07.723Z,1027.36
2017-01-26T00:52:18.443Z,1027.4
2017-01-26T00:53:29.182Z,1027.33
2017-01-26T00:54:39.903Z,1027.37
2017-01-26T00:55:50.660Z,1027.33
2017-01-26T00:57:01.407Z,1027.31
2017-01-26T00:58:12.523Z,1027.31
2017-01-26T00:59:23.236Z,1027.32
2017-01-26T01:00:33.946Z,1027.34
2017-01-26T01:01:44.696Z,1027.37
2017-01-26T01:02:55.437Z,1027.33
2017-01-26T01:04:06.182Z,1027.32
2017-01-26T01:05:17.309Z,1027.34
2017-01-26T01:06:28.024Z,1027.33
2017-01-26T01:07:38.741Z,1027.35
2017-01-26T01:08:49.465Z,1027.32
2017-01-26T01:10:00.201Z,1027.34
2017-01-26T01:11:10.930Z,1027.32
2017-01-26T01:12:21.618Z,1027.32
2017-01-26T01:13:32.344Z,1027.34
2017-01-26T01:14:43.060Z,1027.33
2017-01-26T01:15:53.788Z,1027.35
2017-01-26T01:17:04.485Z,1027.39
2017-01-26T01:18:15.224Z,1027.34
2017-01-26T01:19:25.924Z,1027.35
2017-01-26T01:20:36.669Z,1027.38
2017-01-26T01:21:47.386Z,1027.38
2017-01-26T01:22:58.094Z,1027.36
2017-01-26T01:24:09.089Z,1027.36
2017-01-26T01:25:19.806Z,1027.32
2017-01-26T01:26:30.531Z,1027.29
2017-01-26T01:27:41.269Z,1027.24
2017-01-26T01:28:52.013Z,1027.27
2017-01-26T01:30:02.720Z,1027.22
2017-01-26T01:31:13.435Z,1027.25
2017-01-26T01:32:24.158Z,1027.31
2017-01-26T01:33:34.897Z,1027.3
2017-01-26T01:34:45.604Z,1027.28
2017-01-26T01:35:56.342Z,1027.26
2017-01-26T01:37:07.068Z,1027.28
2017-01-26T01:38:17.794Z,1027.31
2017-01-26T01:39:28.529Z,1027.24
2017-01-26T01:40:39.276Z,1027.3
2017-01-26T01:41:50.022Z,1027.25
2017-01-26T01:43:00.728Z,1027.26
2017-01-26T01:44:11.843Z,1027.24
2017-01-26T01:45:22.540Z,1027.24
2017-01-26T01:46:33.260Z,1027.19
2017-01-26T01:47:44.258Z,1027.24
2017-01-26T01:48:54.976Z,1027.2
2017-01-26T01:50:05.741Z,1027.2
2017-01-26T01:51:16.447Z,1027.11
2017-01-26T01:52:27.193Z,1027.14
2017-01-26T01:53:37.928Z,1027.11
2017-01-26T01:54:48.634Z,1027.14
2017-01-26T01:55:59.373Z,1027.13
2017-01-26T01:57:10.091Z,1027.11
2017-01-26T01:58:20.798Z,1027.14
2017-01-26T01:59:31.516Z,1027.19
2017-01-26T02:00:42.233Z,1027.18
2017-01-26T02:01:52.949Z,1027.18
2017-01-26T02:03:03.674Z,1027.16
2017-01-26T02:04:14.418Z,1027.18
2017-01-26T02:05:25.395Z,1027.16
2017-01-26T02:06:36.145Z,1027.16
2017-01-26T02:07:46.887Z,1027.14
2017-01-26T02:08:57.605Z,1027.19
2017-01-26T02:10:08.759Z,1027.16
2017-01-26T02:11:19.501Z,1027.18
2017-01-26T02:12:30.264Z,1027.15
2017-01-26T02:13:40.968Z,1027.16
2017-01-26T02:14:51.705Z,1027.18
2017-01-26T02:16:02.441Z,1027.21
2017-01-26T02:17:13.173Z,1027.23
2017-01-26T02:18:23.879Z,1027.22
2017-01-26T02:19:34.574Z,1027.24
2017-01-26T02:20:45.286Z,1027.26
2017-01-26T02:21:56.019Z,1027.29
2017-01-26T02:23:06.986Z,1027.26
2017-01-26T02:24:17.703Z,1027.26
2017-01-26T02:25:28.406Z,1027.27
2017-01-26T02:26:39.125Z,1027.28
2017-01-26T02:27:49.820Z,1027.25
2017-01-26T02:29:00.522Z,1027.23
2017-01-26T02:30:11.255Z,1027.2
2017-01-26T02:31:22.010Z,1027.2
2017-01-26T02:32:32.733Z,1027.17
2017-01-26T02:33:43.477Z,1027.2
2017-01-26T02:34:54.188Z,1027.19
2017-01-26T02:36:04.896Z,1027.17
2017-01-26T02:37:15.634Z,1027.16
2017-01-26T02:38:26.384Z,1027.14
2017-01-26T02:39:37.073Z,1027.15
2017-01-26T02:40:47.804Z,1027.12
2017-01-26T02:41:58.525Z,1027.13
2017-01-26T02:43:09.260Z,1027.13
2017-01-26T02:44:19.963Z,1027.07
2017-01-26T02:45:30.684Z,1027.1
2017-01-26T02:46:41.677Z,1027.08
2017-01-26T02:47:52.427Z,1027.03
2017-01-26T02:49:03.148Z,1027.06
2017-01-26T02:50:13.862Z,1027
2017-01-26T02:51:24.583Z,1027.03
2017-01-26T02:52:35.312Z,1027.02
2017-01-26T02:53:46.057Z,1027
2017-01-26T02:54:56.775Z,1027
2017-01-26T02:56:07.552Z,1026.99
2017-01-26T02:57:18.272Z,1026.99
2017-01-26T02:58:29.015Z,1027.01
2017-01-26T02:59:39.763Z,1027
2017-01-26T03:00:50.512Z,1027.01
2017-01-26T03:02:01.257Z,1026.96
2017-01-26T03:03:12.020Z,1026.99
2017-01-26T03:04:22.738Z,1027.02
2017-01-26T03:05:33.471Z,1027
2017-01-26T03:06:44.192Z,1027.01
2017-01-26T03:07:54.909Z,1027.04
2017-01-26T03:09:05.657Z,1027.04
2017-01-26T03:10:16.393Z,1027.07
2017-01-26T03:11:27.127Z,1027.09
2017-01-26T03:12:37.863Z,1027.13
2017-01-26T03:13:48.592Z,1027.11
2017-01-26T03:14:59.327Z,1027.1
2017-01-26T03:16:10.040Z,1027.12
2017-01-26T03:17:20.780Z,1027.03
2017-01-26T03:18:31.526Z,1027.04
2017-01-26T03:19:42.271Z,1027.06
2017-01-26T03:20:53.016Z,1027.09
2017-01-26T03:22:04.001Z,1027.05
2017-01-26T03:23:14.730Z,1027.09
2017-01-26T03:24:25.429Z,1027.06
2017-01-26T03:25:36.152Z,1027.06
2017-01-26T03:26:46.868Z,1027.03
2017-01-26T03:27:57.589Z,1027.02
2017-01-26T03:29:08.314Z,1027.04
2017-01-26T03:30:19.059Z,1027.08
2017-01-26T03:31:29.760Z,1027.09
2017-01-26T03:32:40.849Z,1027.11
2017-01-26T03:33:51.554Z,1027.1
2017-01-26T03:35:02.319Z,1027.15
2017-01-26T03:36:13.058Z,1027.14
2017-01-26T03:37:24.150Z,1027.1
2017-01-26T03:38:34.879Z,1027.15
2017-01-26T03:39:45.595Z,1027.14
2017-01-26T03:40:56.291Z,1027.12
2017-01-26T03:42:07.034Z,1027.11
2017-01-26T03:43:17.754Z,1027.07
2017-01-26T03:44:28.464Z,1027.07
2017-01-26T03:45:39.466Z,1027.05
2017-01-26T03:46:50.196Z,1027.06
2017-01-26T03:48:00.921Z,1027
2017-01-26T03:49:11.645Z,1027.04
2017-01-26T03:50:22.379Z,1027.07
2017-01-26T03:51:33.111Z,1027.05
2017-01-26T03:52:43.847Z,1026.98
2017-01-26T03:53:54.544Z,1027.03
2017-01-26T03:55:05.252Z,1026.99
2017-01-26T03:56:15.995Z,1027.02
2017-01-26T03:57:26.746Z,1027.02
2017-01-26T03:58:37.463Z,1026.99
2017-01-26T03:59:48.213Z,1027
2017-01-26T04:00:58.943Z,1026.99
2017-01-26T04:02:10.111Z,1027.02
2017-01-26T04:03:20.836Z,1027
2017-01-26T04:04:31.542Z,1026.97
2017-01-26T04:05:42.264Z,1026.95
2017-01-26T04:06:52.980Z,1026.93
2017-01-26T04:08:03.702Z,1026.98
2017-01-26T04:09:14.669Z,1026.97
2017-01-26T04:10:25.411Z,1026.86
2017-01-26T04:11:36.136Z,1026.87
2017-01-26T04:12:46.828Z,1026.9
2017-01-26T04:13:57.552Z,1026.95
2017-01-26T04:15:08.270Z,1026.86
2017-01-26T04:16:18.999Z,1026.86
2017-01-26T04:17:29.713Z,1026.86
2017-01-26T04:18:40.437Z,1026.83
2017-01-26T04:19:51.162Z,1026.82
2017-01-26T04:21:01.859Z,1026.84
2017-01-26T04:22:12.596Z,1026.86
2017-01-26T04:23:23.328Z,1026.82
2017-01-26T04:24:34.047Z,1026.84
2017-01-26T04:25:44.785Z,1026.8
2017-01-26T04:26:55.767Z,1026.78
2017-01-26T04:28:06.510Z,1026.73
2017-01-26T04:29:17.255Z,1026.8
2017-01-26T04:30:27.973Z,1026.8
2017-01-26T04:31:38.722Z,1026.75
2017-01-26T04:32:49.464Z,1026.7
2017-01-26T04:34:00.211Z,1026.72
2017-01-26T04:35:10.914Z,1026.75
2017-01-26T04:36:21.651Z,1026.7
2017-01-26T04:37:32.377Z,1026.71
2017-01-26T04:38:43.090Z,1026.69
2017-01-26T04:39:53.796Z,1026.68
2017-01-26T04:41:04.540Z,1026.67
2017-01-26T04:42:15.235Z,1026.67
2017-01-26T04:43:25.931Z,1026.67
2017-01-26T04:44:36.659Z,1026.62
2017-01-26T04:45:47.416Z,1026.63
2017-01-26T04:46:58.113Z,1026.57
2017-01-26T04:48:08.832Z,1026.61
2017-01-26T04:49:19.562Z,1026.58
2017-01-26T04:50:30.283Z,1026.6
2017-01-26T04:51:41.008Z,1026.6
2017-01-26T04:52:51.750Z,1026.6
2017-01-26T04:54:02.854Z,1026.64
2017-01-26T04:55:13.589Z,1026.68
2017-01-26T04:56:24.618Z,1026.65
2017-01-26T04:57:35.352Z,1026.66
2017-01-26T04:58:46.086Z,1026.68
2017-01-26T04:59:56.795Z,1026.62
2017-01-26T05:01:07.501Z,1026.62
2017-01-26T05:02:18.246Z,1026.65
2017-01-26T05:03:28.966Z,1026.66
2017-01-26T05:04:39.680Z,1026.63
2017-01-26T05:05:50.380Z,1026.63
2017-01-26T05:07:01.122Z,1026.62
2017-01-26T05:08:11.856Z,1026.58
2017-01-26T05:09:22.573Z,1026.55
2017-01-26T05:10:33.288Z,1026.52
2017-01-26T05:11:44.003Z,1026.53
2017-01-26T05:12:54.728Z,1026.52
2017-01-26T05:14:05.453Z,1026.48
2017-01-26T05:15:16.173Z,1026.47
2017-01-26T05:16:26.916Z,1026.48
2017-01-26T05:17:37.620Z,1026.44
2017-01-26T05:18:48.341Z,1026.44
2017-01-26T05:19:59.062Z,1026.46
2017-01-26T05:21:09.780Z,1026.49
2017-01-26T05:22:20.475Z,1026.5
2017-01-26T05:23:31.221Z,1026.5
2017-01-26T05:24:41.938Z,1026.51
2017-01-26T05:25:52.684Z,1026.53
2017-01-26T05:27:03.410Z,1026.52
2017-01-26T05:28:14.107Z,1026.54
2017-01-26T05:29:24.852Z,1026.52
2017-01-26T05:30:35.568Z,1026.52
2017-01-26T05:31:46.947Z,1026.48
2017-01-26T05:32:57.658Z,1026.5
2017-01-26T05:34:08.363Z,1026.47
2017-01-26T05:35:19.082Z,1026.5
2017-01-26T05:36:29.823Z,1026.49
2017-01-26T05:37:40.766Z,1026.53
2017-01-26T05:38:51.471Z,1026.53
2017-01-26T05:40:02.162Z,1026.53
2017-01-26T05:41:12.909Z,1026.54
2017-01-26T05:42:23.633Z,1026.49
2017-01-26T05:43:34.337Z,1026.49
2017-01-26T05:44:45.072Z,1026.48
2017-01-26T05:45:55.798Z,1026.47
2017-01-26T05:47:06.553Z,1026.45
2017-01-26T05:48:17.281Z,1026.46
2017-01-26T05:49:27.984Z,1026.44
2017-01-26T05:50:38.733Z,1026.43
2017-01-26T05:51:49.445Z,1026.45
2017-01-26T05:53:00.164Z,1026.46
2017-01-26T05:54:10.875Z,1026.46
2017-01-26T05:55:21.617Z,1026.46
2017-01-26T05:56:32.332Z,1026.45
2017-01-26T05:57:43.055Z,1026.51
2017-01-26T05:58:53.782Z,1026.47
2017-01-26T06:00:04.551Z,1026.43
2017-01-26T06:01:15.262Z,1026.42
2017-01-26T06:02:25.998Z,1026.43
2017-01-26T06:03:36.740Z,1026.5
2017-01-26T06:04:47.460Z,1026.49
2017-01-26T06:05:58.204Z,1026.47
2017-01-26T06:07:09.171Z,1026.52
2017-01-26T06:08:19.924Z,1026.53
2017-01-26T06:09:30.666Z,1026.57
2017-01-26T06:10:41.413Z,1026.53
2017-01-26T06:11:52.137Z,1026.52
2017-01-26T06:13:02.873Z,1026.5
2017-01-26T06:14:13.582Z,1026.5
2017-01-26T06:15:24.297Z,1026.5
2017-01-26T06:16:35.024Z,1026.51
2017-01-26T06:17:45.764Z,1026.5
2017-01-26T06:18:56.486Z,1026.52
2017-01-26T06:20:07.206Z,1026.52
2017-01-26T06:21:17.955Z,1026.56
2017-01-26T06:22:28.668Z,1026.57
2017-01-26T06:23:39.369Z,1026.57
2017-01-26T06:24:50.119Z,1026.6
2017-01-26T06:26:00.861Z,1026.6
2017-01-26T06:27:11.600Z,1026.59
2017-01-26T06:28:22.325Z,1026.6
2017-01-26T06:29:33.028Z,1026.6
2017-01-26T06:30:43.995Z,1026.59
2017-01-26T06:31:54.687Z,1026.57
2017-01-26T06:33:05.433Z,1026.57
2017-01-26T06:34:16.179Z,1026.52
2017-01-26T06:35:26.909Z,1026.51
2017-01-26T06:36:37.621Z,1026.48
2017-01-26T06:37:48.365Z,1026.54
2017-01-26T06:38:59.085Z,1026.55
2017-01-26T06:40:09.790Z,1026.53
2017-01-26T06:41:20.528Z,1026.52
2017-01-26T06:42:31.250Z,1026.45
2017-01-26T06:43:42.333Z,1026.49
2017-01-26T06:44:53.044Z,1026.49
2017-01-26T06:46:03.770Z,1026.44
2017-01-26T06:47:14.494Z,1026.45
2017-01-26T06:48:25.471Z,1026.41
2017-01-26T06:49:36.200Z,1026.41
2017-01-26T06:50:46.924Z,1026.46
2017-01-26T06:51:57.627Z,1026.45
2017-01-26T06:53:08.366Z,1026.47
2017-01-26T06:54:19.094Z,1026.49
2017-01-26T06:55:29.805Z,1026.5
2017-01-26T06:56:40.504Z,1026.5
2017-01-26T06:57:51.229Z,1026.49
2017-01-26T06:59:02.342Z,1026.49
2017-01-26T07:00:13.067Z,1026.51
2017-01-26T07:01:23.822Z,1026.52
2017-01-26T07:02:34.532Z,1026.49
2017-01-26T07:03:45.227Z,1026.52
2017-01-26T07:04:55.923Z,1026.56
2017-01-26T07:06:06.624Z,1026.56
2017-01-26T07:07:17.340Z,1026.58
2017-01-26T07:08:28.065Z,1026.55
2017-01-26T07:09:38.793Z,1026.57
2017-01-26T07:10:49.505Z,1026.59
2017-01-26T07:12:00.210Z,1026.58
2017-01-26T07:13:10.949Z,1026.61
2017-01-26T07:14:21.675Z,1026.57
2017-01-26T07:15:32.420Z,1026.59
2017-01-26T07:16:43.158Z,1026.62
2017-01-26T07:17:53.865Z,1026.59
2017-01-26T07:19:04.951Z,1026.55
2017-01-26T07:20:15.656Z,1026.54
2017-01-26T07:21:26.395Z,1026.6
2017-01-26T07:22:37.123Z,1026.61
2017-01-26T07:23:47.848Z,1026.59
2017-01-26T07:24:58.591Z,1026.61
2017-01-26T07:26:09.330Z,1026.59
2017-01-26T07:27:20.046Z,1026.63
2017-01-26T07:28:30.779Z,1026.66
2017-01-26T07:29:41.899Z,1026.63
2017-01-26T07:30:52.653Z,1026.68
2017-01-26T07:32:03.370Z,1026.67
2017-01-26T07:33:14.078Z,1026.65
2017-01-26T07:34:24.783Z,1026.65
2017-01-26T07:35:35.494Z,1026.7
2017-01-26T07:36:46.194Z,1026.74
2017-01-26T07:37:56.922Z,1026.71
2017-01-26T07:39:07.663Z,1026.74
2017-01-26T07:40:18.352Z,1026.77
2017-01-26T07:41:29.057Z,1026.74
2017-01-26T07:42:39.808Z,1026.74
2017-01-26T07:43:50.551Z,1026.72
2017-01-26T07:45:01.298Z,1026.72
2017-01-26T07:46:12.042Z,1026.75
2017-01-26T07:47:23.378Z,1026.76
2017-01-26T07:48:34.088Z,1026.73
2017-01-26T07:49:44.806Z,1026.78
2017-01-26T07:50:55.501Z,1026.78
2017-01-26T07:52:06.217Z,1026.82
2017-01-26T07:53:16.938Z,1026.79
2017-01-26T07:54:27.666Z,1026.84
2017-01-26T07:55:38.383Z,1026.82
2017-01-26T07:56:49.136Z,1026.82
2017-01-26T07:57:59.854Z,1026.85
2017-01-26T07:59:10.821Z,1026.87
2017-01-26T08:00:21.544Z,1026.88
2017-01-26T08:01:32.269Z,1026.83
2017-01-26T08:02:42.986Z,1026.81
2017-01-26T08:03:53.730Z,1026.84
2017-01-26T08:05:04.470Z,1026.82
2017-01-26T08:06:15.171Z,1026.85
2017-01-26T08:07:25.911Z,1026.83
2017-01-26T08:08:36.613Z,1026.88
2017-01-26T08:09:47.339Z,1026.86
2017-01-26T08:10:58.055Z,1026.86
2017-01-26T08:12:08.776Z,1026.89
2017-01-26T08:13:19.523Z,1026.95
2017-01-26T08:14:30.244Z,1026.92
2017-01-26T08:15:40.983Z,1026.87
2017-01-26T08:16:51.703Z,1026.92
2017-01-26T08:18:02.432Z,1026.96
2017-01-26T08:19:13.131Z,1026.98
2017-01-26T08:20:23.874Z,1026.97
2017-01-26T08:21:34.573Z,1026.91
2017-01-26T08:22:45.310Z,1026.95
2017-01-26T08:23:56.041Z,1026.96
2017-01-26T08:25:06.733Z,1026.89
2017-01-26T08:26:17.449Z,1026.91
2017-01-26T08:27:28.178Z,1026.91
2017-01-26T08:28:38.892Z,1026.9
2017-01-26T08:29:49.622Z,1026.93
2017-01-26T08:31:00.369Z,1026.97
2017-01-26T08:32:11.089Z,1026.93
2017-01-26T08:33:21.830Z,1026.96
2017-01-26T08:34:32.576Z,1027
2017-01-26T08:35:43.322Z,1026.97
2017-01-26T08:36:54.040Z,1026.98
2017-01-26T08:38:04.793Z,1027
2017-01-26T08:39:15.531Z,1026.96
2017-01-26T08:40:26.275Z,1026.99
2017-01-26T08:41:37.003Z,1026.96
2017-01-26T08:42:47.699Z,1026.97
2017-01-26T08:43:58.411Z,1026.95
2017-01-26T08:45:09.143Z,1027.02
2017-01-26T08:46:19.866Z,1027.05
2017-01-26T08:47:30.609Z,1027.03
2017-01-26T08:48:41.348Z,1027.02
2017-01-26T08:49:52.078Z,1027.05
2017-01-26T08:51:02.799Z,1027.05
2017-01-26T08:52:13.547Z,1027.02
2017-01-26T08:53:24.287Z,1027.07
2017-01-26T08:54:35.033Z,1027.1
2017-01-26T08:55:45.725Z,1027.1
2017-01-26T08:56:56.850Z,1027.06
2017-01-26T08:58:07.624Z,1027.05
2017-01-26T08:59:18.360Z,1027.06
2017-01-26T09:00:29.084Z,1027.1
2017-01-26T09:01:39.801Z,1027.01
2017-01-26T09:02:50.505Z,1027.03
2017-01-26T09:04:01.234Z,1027.07
2017-01-26T09:05:11.967Z,1027.04
2017-01-26T09:06:22.661Z,1027.05
2017-01-26T09:07:33.364Z,1027.02
2017-01-26T09:08:44.078Z,1027.02
2017-01-26T09:09:54.831Z,1027.04
2017-01-26T09:11:05.930Z,1027.05
2017-01-26T09:12:16.666Z,1027.09
2017-01-26T09:13:27.390Z,1026.97
2017-01-26T09:14:38.111Z,1026.97
2017-01-26T09:15:48.836Z,1026.94
2017-01-26T09:16:59.550Z,1026.89
2017-01-26T09:18:10.254Z,1026.91
2017-01-26T09:19:20.980Z,1026.95
2017-01-26T09:20:31.695Z,1026.93
2017-01-26T09:21:42.445Z,1026.93
2017-01-26T09:22:53.180Z,1026.89
2017-01-26T09:24:03.893Z,1026.89
2017-01-26T09:25:14.608Z,1026.93
2017-01-26T09:26:25.358Z,1026.87
2017-01-26T09:27:36.092Z,1026.82
2017-01-26T09:28:46.825Z,1026.84
2017-01-26T09:29:57.542Z,1026.81
2017-01-26T09:31:08.255Z,1026.82
2017-01-26T09:32:18.973Z,1026.79
2017-01-26T09:33:29.709Z,1026.81
2017-01-26T09:34:40.422Z,1026.84
2017-01-26T09:35:51.148Z,1026.8
2017-01-26T09:37:01.889Z,1026.76
2017-01-26T09:38:12.609Z,1026.76
2017-01-26T09:39:23.586Z,1026.77
2017-01-26T09:40:34.312Z,1026.76
2017-01-26T09:41:45.040Z,1026.82
2017-01-26T09:42:55.790Z,1026.8
2017-01-26T09:44:06.535Z,1026.79
2017-01-26T09:45:17.277Z,1026.8
2017-01-26T09:46:28.049Z,1026.81
2017-01-26T09:47:38.778Z,1026.77
2017-01-26T09:48:49.515Z,1026.77
2017-01-26T09:50:00.247Z,1026.74
2017-01-26T09:51:10.991Z,1026.71
2017-01-26T09:52:21.707Z,1026.69
2017-01-26T09:53:32.437Z,1026.68
2017-01-26T09:54:43.157Z,1026.66
2017-01-26T09:55:53.904Z,1026.68
2017-01-26T09:57:05.266Z,1026.66
2017-01-26T09:58:15.987Z,1026.7
2017-01-26T09:59:26.740Z,1026.72
2017-01-26T10:00:37.458Z,1026.72
2017-01-26T10:01:48.224Z,1026.71
2017-01-26T10:02:58.942Z,1026.69
2017-01-26T10:04:09.673Z,1026.75
2017-01-26T10:05:20.413Z,1026.75
2017-01-26T10:06:31.166Z,1026.7
2017-01-26T10:07:41.890Z,1026.74
2017-01-26T10:08:52.630Z,1026.72
2017-01-26T10:10:03.376Z,1026.67
2017-01-26T10:11:14.094Z,1026.67
2017-01-26T10:12:24.793Z,1026.69
2017-01-26T10:13:35.506Z,1026.7
2017-01-26T10:14:46.213Z,1026.62
2017-01-26T10:15:56.925Z,1026.7
2017-01-26T10:17:08.036Z,1026.67
2017-01-26T10:18:18.768Z,1026.66
2017-01-26T10:19:29.910Z,1026.69
2017-01-26T10:20:40.639Z,1026.63
2017-01-26T10:21:51.335Z,1026.63
2017-01-26T10:23:02.061Z,1026.64
2017-01-26T10:24:12.784Z,1026.62
2017-01-26T10:25:23.501Z,1026.56
2017-01-26T10:26:34.240Z,1026.55
2017-01-26T10:27:44.994Z,1026.6
2017-01-26T10:28:55.732Z,1026.61
2017-01-26T10:30:06.451Z,1026.57
2017-01-26T10:31:17.177Z,1026.59
2017-01-26T10:32:27.894Z,1026.57
2017-01-26T10:33:38.641Z,1026.51
2017-01-26T10:34:49.380Z,1026.53
2017-01-26T10:36:00.107Z,1026.53
2017-01-26T10:37:10.833Z,1026.51
2017-01-26T10:38:21.815Z,1026.55
2017-01-26T10:39:32.933Z,1026.53
2017-01-26T10:40:43.663Z,1026.48
2017-01-26T10:41:54.359Z,1026.45
2017-01-26T10:43:05.092Z,1026.49
2017-01-26T10:44:15.835Z,1026.53
2017-01-26T10:45:26.571Z,1026.48
2017-01-26T10:46:37.292Z,1026.43
2017-01-26T10:47:48.016Z,1026.46
2017-01-26T10:48:58.738Z,1026.39
2017-01-26T10:50:09.464Z,1026.44
2017-01-26T10:51:20.209Z,1026.44
2017-01-26T10:52:30.937Z,1026.43
2017-01-26T10:53:41.658Z,1026.41
2017-01-26T10:54:52.375Z,1026.41
2017-01-26T10:56:03.093Z,1026.39
2017-01-26T10:57:13.857Z,1026.36
2017-01-26T10:58:24.581Z,1026.38
2017-01-26T10:59:35.333Z,1026.4
2017-01-26T11:00:46.049Z,1026.35
2017-01-26T11:01:56.768Z,1026.36
2017-01-26T11:03:07.465Z,1026.37
2017-01-26T11:04:18.185Z,1026.39
2017-01-26T11:05:28.911Z,1026.34
2017-01-26T11:06:39.611Z,1026.32
2017-01-26T11:07:50.348Z,1026.39
2017-01-26T11:09:01.092Z,1026.36
2017-01-26T11:10:12.170Z,1026.37
2017-01-26T11:11:22.890Z,1026.4
2017-01-26T11:12:33.640Z,1026.3
2017-01-26T11:13:44.368Z,1026.29
2017-01-26T11:14:55.096Z,1026.28
2017-01-26T11:16:05.821Z,1026.29
2017-01-26T11:17:16.549Z,1026.25
2017-01-26T11:18:27.285Z,1026.24
2017-01-26T11:19:37.990Z,1026.32
2017-01-26T11:20:48.683Z,1026.29
2017-01-26T11:21:59.429Z,1026.22
2017-01-26T11:23:10.178Z,1026.23
2017-01-26T11:24:20.921Z,1026.23
2017-01-26T11:25:31.647Z,1026.23
2017-01-26T11:26:42.793Z,1026.2
2017-01-26T11:27:53.527Z,1026.24
2017-01-26T11:29:04.256Z,1026.23
2017-01-26T11:30:14.980Z,1026.27
2017-01-26T11:31:25.743Z,1026.34
2017-01-26T11:32:36.470Z,1026.32
2017-01-26T11:33:47.217Z,1026.21
2017-01-26T11:34:57.939Z,1026.18
2017-01-26T11:36:08.681Z,1026.16
2017-01-26T11:37:19.432Z,1026.16
2017-01-26T11:38:30.550Z,1026.18
2017-01-26T11:39:54.764Z,1026.13
2017-01-26T11:41:05.515Z,1026.08
2017-01-26T11:42:16.236Z,1026.14
2017-01-26T11:43:26.985Z,1026.11
2017-01-26T11:44:37.720Z,1026.04
2017-01-26T11:45:48.429Z,1026.05
2017-01-26T11:46:59.523Z,1026.04
2017-01-26T11:48:10.265Z,1026.03
2017-01-26T11:49:20.995Z,1026.01
2017-01-26T11:50:31.740Z,1025.97
2017-01-26T11:51:42.476Z,1026.04
2017-01-26T11:52:53.201Z,1026
2017-01-26T11:54:03.925Z,1026.03
2017-01-26T11:55:14.661Z,1025.92
2017-01-26T11:56:25.369Z,1026.01
2017-01-26T11:57:36.113Z,1025.98
2017-01-26T11:58:46.901Z,1025.96
2017-01-26T11:59:57.608Z,1025.91
2017-01-26T12:01:08.348Z,1025.94
2017-01-26T12:02:19.093Z,1025.9
2017-01-26T12:03:29.816Z,1025.86
2017-01-26T12:04:40.937Z,1025.89
2017-01-26T12:05:51.659Z,1025.9
2017-01-26T12:07:02.380Z,1025.8
2017-01-26T12:08:13.119Z,1025.83
2017-01-26T12:09:23.845Z,1025.74
2017-01-26T12:10:34.562Z,1025.79
2017-01-26T12:11:45.291Z,1025.71
2017-01-26T12:12:56.032Z,1025.72
2017-01-26T12:14:06.778Z,1025.72
2017-01-26T12:15:17.501Z,1025.73
2017-01-26T12:16:28.225Z,1025.66
2017-01-26T12:17:39.220Z,1025.66
2017-01-26T12:18:49.942Z,1025.65
2017-01-26T12:20:00.663Z,1025.65
2017-01-26T12:21:11.382Z,1025.59
2017-01-26T12:22:22.125Z,1025.56
2017-01-26T12:23:32.845Z,1025.59
2017-01-26T12:24:43.550Z,1025.58
2017-01-26T12:25:54.288Z,1025.57
2017-01-26T12:27:05.011Z,1025.55
2017-01-26T12:28:15.755Z,1025.53
2017-01-26T12:29:26.484Z,1025.57
2017-01-26T12:30:37.201Z,1025.53
2017-01-26T12:31:47.926Z,1025.48
2017-01-26T12:32:58.666Z,1025.48
2017-01-26T12:34:09.404Z,1025.49
2017-01-26T12:35:20.501Z,1025.53
2017-01-26T12:36:31.627Z,1025.5
2017-01-26T12:37:42.372Z,1025.52
2017-01-26T12:38:53.089Z,1025.45
2017-01-26T12:40:03.820Z,1025.43
2017-01-26T12:41:14.553Z,1025.42
2017-01-26T12:42:25.283Z,1025.35
2017-01-26T12:43:36.009Z,1025.4
2017-01-26T12:44:46.721Z,1025.41
2017-01-26T12:45:57.473Z,1025.3
2017-01-26T12:47:08.207Z,1025.32
2017-01-26T12:48:18.940Z,1025.35
2017-01-26T12:49:29.657Z,1025.26
2017-01-26T12:50:40.379Z,1025.26
2017-01-26T12:51:51.101Z,1025.31
2017-01-26T12:53:01.820Z,1025.26
2017-01-26T12:54:12.945Z,1025.29
2017-01-26T12:55:23.679Z,1025.16
2017-01-26T12:56:34.400Z,1025.21
2017-01-26T12:57:45.128Z,1025.21
2017-01-26T12:58:55.852Z,1025.17
2017-01-26T13:00:06.595Z,1025.16
2017-01-26T13:01:17.333Z,1025.14
2017-01-26T13:02:28.065Z,1025.19
2017-01-26T13:03:38.800Z,1025.09
2017-01-26T13:04:49.528Z,1025.12
2017-01-26T13:06:00.651Z,1025.05
2017-01-26T13:07:11.396Z,1025.08
2017-01-26T13:08:22.117Z,1025.04
2017-01-26T13:09:32.840Z,1025.03
2017-01-26T13:10:43.563Z,1025.06
2017-01-26T13:11:54.300Z,1025.03
2017-01-26T13:13:05.024Z,1025.04
2017-01-26T13:14:15.763Z,1024.99
2017-01-26T13:15:26.501Z,1025.01
2017-01-26T13:16:37.238Z,1024.99
2017-01-26T13:17:47.959Z,1024.98
2017-01-26T13:18:58.660Z,1024.93
2017-01-26T13:20:09.411Z,1024.94
2017-01-26T13:21:20.175Z,1024.94
2017-01-26T13:22:31.286Z,1024.97
2017-01-26T13:23:42.008Z,1024.89
2017-01-26T13:24:52.751Z,1024.86
2017-01-26T13:26:03.480Z,1024.84
2017-01-26T13:27:14.230Z,1024.88
2017-01-26T13:28:26.852Z,1024.84
2017-01-26T13:29:39.499Z,1024.83
2017-01-26T13:30:52.509Z,1024.83
2017-01-26T13:32:05.158Z,1024.81
2017-01-26T13:33:16.652Z,1024.8
2017-01-26T13:34:29.294Z,1024.73
2017-01-26T13:35:42.339Z,1024.76
2017-01-26T13:36:54.602Z,1024.73
2017-01-26T13:38:06.896Z,1024.76
2017-01-26T13:39:19.553Z,1024.73
2017-01-26T13:40:32.556Z,1024.71
2017-01-26T13:41:45.201Z,1024.74
2017-01-26T13:42:57.844Z,1024.67
2017-01-26T13:44:10.510Z,1024.67
2017-01-26T13:45:23.193Z,1024.64
2017-01-26T13:46:36.210Z,1024.66
2017-01-26T13:47:48.837Z,1024.64
2017-01-26T13:49:01.459Z,1024.64
2017-01-26T13:50:14.101Z,1024.62
2017-01-26T13:51:26.773Z,1024.61
2017-01-26T13:52:39.043Z,1024.6
2017-01-26T13:53:51.713Z,1024.58
2017-01-26T13:55:04.735Z,1024.63
2017-01-26T13:56:17.377Z,1024.67
2017-01-26T13:57:30.405Z,1024.62
2017-01-26T13:58:43.046Z,1024.61
2017-01-26T13:59:56.074Z,1024.64
2017-01-26T14:01:09.089Z,1024.65
2017-01-26T14:02:21.738Z,1024.61
2017-01-26T14:03:34.387Z,1024.59
2017-01-26T14:04:47.399Z,1024.53
2017-01-26T14:05:59.691Z,1024.52
2017-01-26T14:07:12.335Z,1024.5
2017-01-26T14:08:25.380Z,1024.52
2017-01-26T14:09:38.036Z,1024.54
2017-01-26T14:10:51.050Z,1024.49
2017-01-26T14:12:03.703Z,1024.54
2017-01-26T14:13:15.944Z,1024.53
2017-01-26T14:14:28.612Z,1024.5
2017-01-26T14:15:41.654Z,1024.56
2017-01-26T14:16:54.656Z,1024.48
2017-01-26T14:18:06.556Z,1024.46
2017-01-26T14:19:19.201Z,1024.43
2017-01-26T14:20:31.841Z,1024.44
2017-01-26T14:21:44.856Z,1024.4